createdAt,value
2023-05-24T00:00:15.942Z,1
2023-05-24T00:05:19.191Z,1
2023-05-24T00:10:19.092Z,1
2023-05-24T00:15:19.006Z,1
2023-05-24T00:20:19.284Z,1
2023-05-24T00:25:19.034Z,1
2023-05-24T00:30:19.099Z,1
2023-05-24T00:35:19.108Z,1
2023-05-24T00:40:19.065Z,0
2023-05-24T00:45:19.041Z,0
2023-05-24T00:50:16.119Z,0
2023-05-24T00:55:16.174Z,0
2023-05-24T01:00:19.174Z,0
2023-05-24T01:05:19.150Z,0
2023-05-24T01:10:19.084Z,0
2023-05-24T01:15:19.207Z,1
2023-05-24T01:20:19.167Z,1
2023-05-24T01:25:19.086Z,1
2023-05-24T01:30:19.072Z,1
2023-05-24T01:35:19.138Z,0
2023-05-24T01:40:16.090Z,0
2023-05-24T01:45:16.109Z,0
2023-05-24T01:50:19.315Z,0
2023-05-24T01:55:19.099Z,0
2023-05-24T02:00:19.252Z,0
2023-05-24T02:05:19.235Z,0
2023-05-24T02:10:19.451Z,0
2023-05-24T02:15:19.201Z,0
2023-05-24T02:20:19.351Z,0
2023-05-24T02:25:19.329Z,0
2023-05-24T02:30:19.294Z,0
2023-05-24T02:35:16.179Z,0
2023-05-24T02:40:16.374Z,0
2023-05-24T02:45:19.427Z,0
2023-05-24T02:50:19.268Z,0
2023-05-24T02:55:19.210Z,0
2023-05-24T03:00:19.360Z,0
2023-05-24T03:05:19.171Z,0
2023-05-24T03:10:19.205Z,0
2023-05-24T03:15:19.307Z,0
2023-05-24T03:20:19.284Z,0
2023-05-24T03:25:19.321Z,0
2023-05-24T03:30:16.309Z,0
2023-05-24T03:35:19.277Z,0
2023-05-24T03:40:19.369Z,0
2023-05-24T03:45:26.951Z,0
2023-05-24T03:50:19.341Z,0
2023-05-24T03:55:19.310Z,0
2023-05-24T04:00:18.628Z,0
2023-05-24T04:05:18.662Z,0
2023-05-24T04:10:18.677Z,0
2023-05-24T04:15:18.628Z,0
2023-05-24T04:20:18.663Z,0
2023-05-24T04:25:18.718Z,0
2023-05-24T04:30:18.695Z,0
2023-05-24T04:35:15.636Z,0
2023-05-24T04:40:15.605Z,0
2023-05-24T04:45:18.831Z,0
2023-05-24T04:50:18.729Z,0
2023-05-24T04:55:18.727Z,0
2023-05-24T05:00:18.690Z,0
2023-05-24T05:05:19.043Z,0
2023-05-24T05:10:18.784Z,0
2023-05-24T05:15:18.617Z,0
2023-05-24T05:20:18.785Z,0
2023-05-24T05:25:18.767Z,0
2023-05-24T05:30:15.616Z,0
2023-05-24T05:35:15.723Z,0
2023-05-24T05:40:18.931Z,0
2023-05-24T05:45:18.714Z,0
2023-05-24T05:50:18.817Z,0
2023-05-24T05:55:18.894Z,0
2023-05-24T06:00:18.830Z,0
2023-05-24T06:05:18.815Z,0
2023-05-24T06:10:18.978Z,0
2023-05-24T06:15:18.843Z,0
2023-05-24T06:20:18.926Z,0
2023-05-24T06:25:15.728Z,0
2023-05-24T06:30:19.161Z,0
2023-05-24T06:35:18.769Z,0
2023-05-24T06:40:19.041Z,0
2023-05-24T06:45:18.862Z,0
2023-05-24T06:50:18.890Z,0
2023-05-24T06:55:18.934Z,0
2023-05-24T07:00:18.861Z,0
2023-05-24T07:05:19.076Z,0
2023-05-24T07:10:16.039Z,0
2023-05-24T07:15:15.653Z,0
2023-05-24T07:20:15.810Z,0
2023-05-24T07:25:18.950Z,0
2023-05-24T07:30:31.138Z,0
2023-05-24T07:35:18.943Z,0
2023-05-24T07:40:19.004Z,0
2023-05-24T07:45:18.995Z,0
2023-05-24T07:50:19.028Z,0
2023-05-24T07:55:19.002Z,0
2023-05-24T08:00:19.032Z,0
2023-05-24T08:05:19.001Z,0
2023-05-24T08:10:15.728Z,0
2023-05-24T08:15:16.702Z,0
2023-05-24T08:20:18.936Z,0
2023-05-24T08:25:19.030Z,0
2023-05-24T08:30:19.490Z,0
2023-05-24T08:35:21.546Z,0
2023-05-24T08:40:19.053Z,0
2023-05-24T08:45:19.101Z,0
2023-05-24T08:50:18.951Z,0
2023-05-24T08:55:19.027Z,0
2023-05-24T09:00:19.050Z,0
2023-05-24T09:05:15.883Z,0
2023-05-24T09:10:16.224Z,0
2023-05-24T09:15:19.235Z,0
2023-05-24T09:20:19.370Z,0
2023-05-24T09:25:19.068Z,0
2023-05-24T09:30:19.284Z,0
2023-05-24T09:35:19.150Z,0
2023-05-24T09:40:19.076Z,0
2023-05-24T09:45:19.206Z,0
2023-05-24T09:50:19.157Z,0
2023-05-24T09:55:16.106Z,0
2023-05-24T10:00:16.191Z,0
2023-05-24T10:05:19.156Z,0
2023-05-24T10:10:19.212Z,0
2023-05-24T10:15:19.228Z,0
2023-05-24T10:20:19.225Z,0
2023-05-24T10:25:19.176Z,0
2023-05-24T10:30:19.129Z,0
2023-05-24T10:35:19.162Z,0
2023-05-24T10:40:19.131Z,0
2023-05-24T10:45:19.263Z,1
2023-05-24T10:50:16.228Z,1
2023-05-24T10:55:16.111Z,1
2023-05-24T11:00:30.800Z,1
2023-05-24T11:05:19.210Z,1
2023-05-24T11:10:19.194Z,1
2023-05-24T11:15:19.230Z,1
2023-05-24T11:20:19.341Z,1
2023-05-24T11:25:19.215Z,2
2023-05-24T11:30:19.292Z,1
2023-05-24T11:35:19.237Z,1
2023-05-24T11:40:19.366Z,1
2023-05-24T11:45:16.259Z,1
2023-05-24T11:50:16.299Z,1
2023-05-24T11:55:19.237Z,1
2023-05-24T12:00:19.236Z,0
2023-05-24T12:05:19.420Z,1
2023-05-24T12:10:20.911Z,1
2023-05-24T12:15:19.264Z,2
2023-05-24T12:20:19.508Z,2
2023-05-24T12:25:19.269Z,2
2023-05-24T12:30:19.431Z,0
2023-05-24T12:35:16.425Z,1
2023-05-24T12:40:16.396Z,1
2023-05-24T12:45:19.432Z,2
2023-05-24T12:50:19.314Z,1
2023-05-24T12:55:19.452Z,1
2023-05-24T13:00:19.378Z,1
2023-05-24T13:05:19.305Z,2
2023-05-24T13:10:19.451Z,1
2023-05-24T13:15:19.404Z,1
2023-05-24T13:20:19.353Z,2
2023-05-24T13:25:19.389Z,2
2023-05-24T13:30:16.315Z,2
2023-05-24T13:35:16.362Z,2
2023-05-24T13:40:19.454Z,1
2023-05-24T13:45:19.450Z,2
2023-05-24T13:50:19.381Z,1
2023-05-24T13:55:19.507Z,0
2023-05-24T14:00:19.417Z,1
2023-05-24T14:05:27.514Z,1
2023-05-24T14:10:21.570Z,1
2023-05-24T14:15:19.383Z,0
2023-05-24T14:20:19.494Z,1
2023-05-24T14:25:16.496Z,0
2023-05-24T14:30:19.628Z,1
2023-05-24T14:35:19.426Z,1
2023-05-24T14:40:20.324Z,0
2023-05-24T14:45:19.516Z,0
2023-05-24T14:50:19.575Z,1
2023-05-24T14:55:19.521Z,0
2023-05-24T15:00:22.659Z,0
2023-05-24T15:05:19.502Z,1
2023-05-24T15:10:19.603Z,1
2023-05-24T15:15:16.504Z,1
2023-05-24T15:20:16.707Z,1
2023-05-24T15:25:19.673Z,2
2023-05-24T15:30:19.599Z,2
2023-05-24T15:35:19.558Z,0
2023-05-24T15:40:19.564Z,1
2023-05-24T15:45:19.515Z,0
2023-05-24T15:50:28.460Z,1
2023-05-24T15:55:19.591Z,1
2023-05-24T16:00:19.582Z,0
2023-05-24T16:05:21.037Z,2
2023-05-24T16:10:16.603Z,2
2023-05-24T16:15:16.690Z,0
2023-05-24T16:20:19.623Z,1
2023-05-24T16:25:19.756Z,1
2023-05-24T16:30:19.638Z,1
2023-05-24T16:35:19.780Z,1
2023-05-24T16:40:19.571Z,1
2023-05-24T16:45:19.658Z,1
2023-05-24T16:50:19.710Z,1
2023-05-24T16:55:19.741Z,1
2023-05-24T17:00:16.683Z,1
2023-05-24T17:05:16.607Z,1
2023-05-24T17:10:19.868Z,1
2023-05-24T17:15:19.662Z,1
2023-05-24T17:20:19.761Z,1
2023-05-24T17:25:19.792Z,1
2023-05-24T17:30:19.770Z,1
2023-05-24T17:35:19.691Z,2
2023-05-24T17:40:19.854Z,3
2023-05-24T17:45:19.717Z,2
2023-05-24T17:50:19.798Z,2
2023-05-24T17:55:16.680Z,1
2023-05-24T18:00:16.700Z,2
2023-05-24T18:05:19.737Z,1
2023-05-24T18:10:19.804Z,2
2023-05-24T18:15:19.883Z,2
2023-05-24T18:20:19.817Z,2
2023-05-24T18:25:19.791Z,2
2023-05-24T18:30:19.865Z,3
2023-05-24T18:35:19.878Z,2
2023-05-24T18:40:19.722Z,2
2023-05-24T18:45:19.926Z,2
2023-05-24T18:50:16.877Z,2
2023-05-24T18:55:17.036Z,4
2023-05-24T19:00:19.905Z,3
2023-05-24T19:05:19.852Z,2
2023-05-24T19:10:19.816Z,4
2023-05-24T19:15:19.937Z,4
2023-05-24T19:20:19.931Z,4
2023-05-24T19:25:19.824Z,3
2023-05-24T19:30:19.933Z,3
2023-05-24T19:35:19.944Z,2
2023-05-24T19:40:16.901Z,3
2023-05-24T19:45:16.758Z,3
2023-05-24T19:50:20.203Z,4
2023-05-24T19:55:19.995Z,3
2023-05-24T20:00:19.994Z,3
2023-05-24T20:05:20.018Z,3
2023-05-24T20:10:19.929Z,3
2023-05-24T20:15:19.966Z,3
2023-05-24T20:20:20.060Z,3
2023-05-24T20:25:20.009Z,3
2023-05-24T20:30:20.011Z,3
2023-05-24T20:35:16.843Z,3
2023-05-24T20:40:20.015Z,3
2023-05-24T20:45:19.982Z,3
2023-05-24T20:50:19.929Z,3
2023-05-24T20:55:19.973Z,2
2023-05-24T21:00:20.055Z,2
2023-05-24T21:05:20.007Z,13
2023-05-24T21:10:20.091Z,8
2023-05-24T21:15:20.139Z,7
2023-05-24T21:20:20.054Z,8
2023-05-24T21:25:17.078Z,7
2023-05-24T21:30:16.986Z,9
2023-05-24T21:35:20.160Z,9
2023-05-24T21:40:20.118Z,11
2023-05-24T21:45:20.044Z,9
2023-05-24T21:50:20.116Z,8
2023-05-24T21:55:20.114Z,8
2023-05-24T22:00:20.062Z,8
2023-05-24T22:05:20.061Z,7
2023-05-24T22:10:20.179Z,6
2023-05-24T22:15:20.253Z,7
2023-05-24T22:20:17.120Z,7
2023-05-24T22:25:17.066Z,5
2023-05-24T22:30:20.128Z,5
2023-05-24T22:35:20.059Z,5
2023-05-24T22:40:20.142Z,4
2023-05-24T22:45:20.212Z,5
2023-05-24T22:50:20.217Z,5
2023-05-24T22:55:20.142Z,5
2023-05-24T23:00:20.099Z,4
2023-05-24T23:05:20.200Z,3
2023-05-24T23:10:20.144Z,3
2023-05-24T23:15:17.551Z,2
2023-05-24T23:20:17.366Z,2
2023-05-24T23:25:20.314Z,2
2023-05-24T23:30:20.166Z,1
2023-05-24T23:35:20.258Z,2
2023-05-24T23:40:20.285Z,2
2023-05-24T23:45:20.474Z,3
2023-05-24T23:50:20.349Z,2
2023-05-24T23:55:20.320Z,2
